createdAt,value
2023-05-15T00:02:12.453Z,15.00
2023-05-15T00:04:39.398Z,15.00
2023-05-15T00:07:06.528Z,15.00
2023-05-15T00:09:35.772Z,15.00
2023-05-15T00:12:05.765Z,15.00
2023-05-15T00:14:32.952Z,15.00
2023-05-15T00:16:59.929Z,15.00
2023-05-15T00:19:29.315Z,15.00
2023-05-15T00:21:56.294Z,15.00
2023-05-15T00:24:23.218Z,15.00
2023-05-15T00:26:50.354Z,15.00
2023-05-15T00:29:17.366Z,15.00
2023-05-15T00:31:45.322Z,15.00
2023-05-15T00:34:14.905Z,15.00
2023-05-15T00:36:41.940Z,15.00
2023-05-15T00:39:11.406Z,15.00
2023-05-15T00:41:40.861Z,14.90
2023-05-15T00:44:08.987Z,14.90
2023-05-15T00:46:41.175Z,14.90
2023-05-15T00:49:13.612Z,14.90
2023-05-15T00:51:43.927Z,14.90
2023-05-15T00:54:13.516Z,14.90
2023-05-15T00:56:44.937Z,14.90
2023-05-15T00:59:13.540Z,14.90
2023-05-15T01:01:45.300Z,14.90
2023-05-15T01:04:12.408Z,14.90
2023-05-15T01:06:39.247Z,14.90
2023-05-15T01:09:08.382Z,14.90
2023-05-15T01:11:44.536Z,14.90
2023-05-15T01:14:19.985Z,14.90
2023-05-15T01:16:47.278Z,14.90
2023-05-15T01:19:14.602Z,14.90
2023-05-15T01:22:22.133Z,14.80
2023-05-15T01:25:14.166Z,14.90
2023-05-15T01:27:56.961Z,14.80
2023-05-15T01:30:34.603Z,14.80
2023-05-15T01:33:13.842Z,14.80
2023-05-15T01:35:59.148Z,14.80
2023-05-15T01:38:38.530Z,14.80
2023-05-15T01:41:44.504Z,14.80
2023-05-15T01:44:31.339Z,14.80
2023-05-15T01:47:10.019Z,14.80
2023-05-15T01:49:38.413Z,14.80
2023-05-15T01:52:30.899Z,14.80
2023-05-15T01:54:58.675Z,14.80
2023-05-15T01:57:33.997Z,14.80
2023-05-15T02:00:02.855Z,14.80
2023-05-15T02:02:31.649Z,14.80
2023-05-15T02:04:59.646Z,14.80
2023-05-15T02:07:27.458Z,14.80
2023-05-15T02:09:55.496Z,14.80
2023-05-15T02:12:23.313Z,14.80
2023-05-15T02:14:51.012Z,14.80
2023-05-15T02:17:20.989Z,14.80
2023-05-15T02:19:50.258Z,14.80
2023-05-15T02:22:17.277Z,14.80
2023-05-15T02:24:47.114Z,14.80
2023-05-15T02:27:30.922Z,14.80
2023-05-15T02:30:08.758Z,14.80
2023-05-15T02:33:13.387Z,14.80
2023-05-15T02:35:43.954Z,14.70
2023-05-15T02:38:16.981Z,14.70
2023-05-15T02:40:46.775Z,14.70
2023-05-15T02:43:16.744Z,14.70
2023-05-15T02:45:47.135Z,14.70
2023-05-15T02:48:17.677Z,14.70
2023-05-15T02:50:45.792Z,14.70
2023-05-15T02:53:14.572Z,14.70
2023-05-15T02:55:41.605Z,14.60
2023-05-15T02:58:09.444Z,14.60
2023-05-15T03:00:36.462Z,14.60
2023-05-15T03:03:03.532Z,14.50
2023-05-15T03:05:30.466Z,14.50
2023-05-15T03:08:00.174Z,14.50
2023-05-15T03:10:27.147Z,14.40
2023-05-15T03:12:58.202Z,14.40
2023-05-15T03:15:25.819Z,14.40
2023-05-15T03:17:55.841Z,14.40
2023-05-15T03:20:24.935Z,14.40
2023-05-15T03:22:51.913Z,14.40
2023-05-15T03:25:18.868Z,14.40
2023-05-15T03:27:45.850Z,14.40
2023-05-15T03:30:13.298Z,14.40
2023-05-15T03:32:40.280Z,14.50
2023-05-15T03:35:07.498Z,14.50
2023-05-15T03:37:34.436Z,14.50
2023-05-15T03:40:01.308Z,14.50
2023-05-15T03:42:29.238Z,14.50
2023-05-15T03:44:59.593Z,14.50
2023-05-15T03:47:26.527Z,14.50
2023-05-15T03:49:53.526Z,14.50
2023-05-15T03:52:21.050Z,14.40
2023-05-15T03:54:48.114Z,14.50
2023-05-15T03:57:15.029Z,14.40
2023-05-15T03:59:44.545Z,14.40
2023-05-15T04:02:11.631Z,14.40
2023-05-15T04:04:38.768Z,14.40
2023-05-15T04:07:06.260Z,14.40
2023-05-15T04:09:34.612Z,14.40
2023-05-15T04:12:01.532Z,14.50
2023-05-15T04:14:30.405Z,14.50
2023-05-15T04:16:57.286Z,14.50
2023-05-15T04:19:24.233Z,14.50
2023-05-15T04:21:51.159Z,14.50
2023-05-15T04:24:20.252Z,14.50
2023-05-15T04:26:47.139Z,14.50
2023-05-15T04:29:14.202Z,14.50
2023-05-15T04:31:41.207Z,14.50
2023-05-15T04:34:10.692Z,14.50
2023-05-15T04:36:37.652Z,14.60
2023-05-15T04:39:06.994Z,14.60
2023-05-15T04:41:34.226Z,14.60
2023-05-15T04:44:01.216Z,14.70
2023-05-15T04:46:29.338Z,14.70
2023-05-15T04:49:02.616Z,14.70
2023-05-15T04:51:29.629Z,14.70
2023-05-15T04:53:56.558Z,14.80
2023-05-15T04:56:23.559Z,14.90
2023-05-15T04:58:50.521Z,15.00
2023-05-15T05:01:17.504Z,15.10
2023-05-15T05:03:44.423Z,15.10
2023-05-15T05:06:11.435Z,15.20
2023-05-15T05:08:43.429Z,15.30
2023-05-15T05:11:10.537Z,15.30
2023-05-15T05:13:37.464Z,15.40
2023-05-15T05:16:07.589Z,15.40
2023-05-15T05:18:38.905Z,15.40
2023-05-15T05:21:06.274Z,15.40
2023-05-15T05:23:33.475Z,15.50
2023-05-15T05:26:00.810Z,15.50
2023-05-15T05:28:27.866Z,15.60
2023-05-15T05:30:56.660Z,15.60
2023-05-15T05:33:23.484Z,15.70
2023-05-15T05:35:51.712Z,15.80
2023-05-15T05:38:18.709Z,16.00
2023-05-15T05:40:47.878Z,16.20
2023-05-15T05:43:14.838Z,16.40
2023-05-15T05:45:44.260Z,16.40
2023-05-15T05:48:13.338Z,16.60
2023-05-15T05:50:42.831Z,16.70
2023-05-15T05:53:09.880Z,16.90
2023-05-15T05:55:36.941Z,17.00
2023-05-15T05:58:08.518Z,17.10
2023-05-15T06:00:41.624Z,17.20
2023-05-15T06:03:12.057Z,17.20
2023-05-15T06:05:39.041Z,17.30
2023-05-15T06:08:06.656Z,17.30
2023-05-15T06:10:33.660Z,17.30
2023-05-15T06:13:03.118Z,17.30
2023-05-15T06:15:30.012Z,17.30
2023-05-15T06:17:57.005Z,17.30
2023-05-15T06:20:24.339Z,17.30
2023-05-15T06:22:56.164Z,17.40
2023-05-15T06:25:23.531Z,17.40
2023-05-15T06:27:52.805Z,17.40
2023-05-15T06:30:22.316Z,17.50
2023-05-15T06:32:49.518Z,17.60
2023-05-15T06:35:16.737Z,17.80
2023-05-15T06:37:43.637Z,17.90
2023-05-15T06:40:12.112Z,17.90
2023-05-15T06:42:38.985Z,17.90
2023-05-15T06:45:06.939Z,18.10
2023-05-15T06:47:33.853Z,18.20
2023-05-15T06:50:00.825Z,18.40
2023-05-15T06:52:27.843Z,18.60
2023-05-15T06:55:00.102Z,18.80
2023-05-15T06:57:27.269Z,18.90
2023-05-15T06:59:54.166Z,19.10
2023-05-15T07:02:28.477Z,19.30
2023-05-15T07:04:56.218Z,19.50
2023-05-15T07:07:23.573Z,19.60
2023-05-15T07:09:53.365Z,19.70
2023-05-15T07:12:22.913Z,19.80
2023-05-15T07:14:52.013Z,19.80
2023-05-15T07:17:21.456Z,19.90
2023-05-15T07:19:48.487Z,20.10
2023-05-15T07:22:15.539Z,20.10
2023-05-15T07:24:42.535Z,20.10
2023-05-15T07:27:09.382Z,20.20
2023-05-15T07:29:38.436Z,20.20
2023-05-15T07:32:05.819Z,20.20
2023-05-15T07:34:32.867Z,20.30
2023-05-15T07:36:59.790Z,20.40
2023-05-15T07:39:26.788Z,20.60
2023-05-15T07:41:56.213Z,20.70
2023-05-15T07:44:23.248Z,20.80
2023-05-15T07:46:52.666Z,20.90
2023-05-15T07:49:22.224Z,21.00
2023-05-15T07:51:49.150Z,21.20
2023-05-15T07:54:16.282Z,21.20
2023-05-15T07:56:43.757Z,21.20
2023-05-15T07:59:13.518Z,21.10
2023-05-15T08:01:40.487Z,21.00
2023-05-15T08:04:09.349Z,20.90
2023-05-15T08:06:39.897Z,21.00
2023-05-15T08:09:06.949Z,21.10
2023-05-15T08:11:34.160Z,21.30
2023-05-15T08:14:01.243Z,21.40
2023-05-15T08:16:30.937Z,21.40
2023-05-15T08:19:04.866Z,21.50
2023-05-15T08:21:32.385Z,21.60
2023-05-15T08:24:00.985Z,21.70
2023-05-15T08:26:31.078Z,21.80
2023-05-15T08:28:58.047Z,21.80
2023-05-15T08:31:25.041Z,21.90
2023-05-15T08:33:54.222Z,22.00
2023-05-15T08:36:23.813Z,22.20
2023-05-15T08:38:53.106Z,22.30
2023-05-15T08:41:39.989Z,22.30
2023-05-15T08:44:09.674Z,22.50
2023-05-15T08:46:36.941Z,22.70
2023-05-15T08:49:38.011Z,22.90
2023-05-15T08:52:05.861Z,23.00
2023-05-15T08:54:38.723Z,23.00
2023-05-15T08:57:06.360Z,22.80
2023-05-15T08:59:33.494Z,22.70
2023-05-15T09:02:00.872Z,22.90
2023-05-15T09:04:27.752Z,22.90
2023-05-15T09:06:55.570Z,23.00
2023-05-15T09:09:24.619Z,23.00
2023-05-15T09:11:52.044Z,22.80
2023-05-15T09:14:20.995Z,22.60
2023-05-15T09:16:51.053Z,22.50
2023-05-15T09:19:23.777Z,22.20
2023-05-15T09:21:50.771Z,22.10
2023-05-15T09:24:24.572Z,22.00
2023-05-15T09:27:06.336Z,22.10
2023-05-15T09:29:37.154Z,22.10
2023-05-15T09:32:07.757Z,22.30
2023-05-15T09:34:42.783Z,22.60
2023-05-15T09:37:13.829Z,23.00
2023-05-15T09:39:42.832Z,23.20
2023-05-15T09:42:12.236Z,23.20
2023-05-15T09:44:46.162Z,23.10
2023-05-15T09:47:14.470Z,22.90
2023-05-15T09:49:44.578Z,22.80
2023-05-15T09:52:11.857Z,22.80
2023-05-15T09:54:40.196Z,22.80
2023-05-15T09:57:11.635Z,22.90
2023-05-15T09:59:46.771Z,23.00
2023-05-15T10:02:35.323Z,23.10
2023-05-15T10:05:02.910Z,23.20
2023-05-15T10:07:35.576Z,23.30
2023-05-15T10:10:04.722Z,23.30
2023-05-15T10:12:32.576Z,23.10
2023-05-15T10:15:04.927Z,22.90
2023-05-15T10:17:37.174Z,22.90
2023-05-15T10:20:07.087Z,23.10
2023-05-15T10:22:38.561Z,23.20
2023-05-15T10:25:41.744Z,23.30
2023-05-15T10:28:10.495Z,23.40
2023-05-15T10:30:38.551Z,23.40
2023-05-15T10:33:06.827Z,23.50
2023-05-15T10:35:38.160Z,23.60
2023-05-15T10:38:08.311Z,23.90
2023-05-15T10:40:40.117Z,24.10
2023-05-15T10:43:11.872Z,24.30
2023-05-15T10:45:39.920Z,24.30
2023-05-15T10:48:08.416Z,24.00
2023-05-15T10:50:37.849Z,23.70
2023-05-15T10:53:04.903Z,23.30
2023-05-15T10:55:31.982Z,23.10
2023-05-15T10:57:59.003Z,22.80
2023-05-15T11:00:42.529Z,22.80
2023-05-15T11:03:17.039Z,23.00
2023-05-15T11:06:12.633Z,23.20
2023-05-15T11:08:41.592Z,23.50
2023-05-15T11:11:08.728Z,23.60
2023-05-15T11:14:07.993Z,23.50
2023-05-15T11:16:59.426Z,23.20
2023-05-15T11:19:29.177Z,22.90
2023-05-15T11:22:02.259Z,22.70
2023-05-15T11:24:53.753Z,22.70
2023-05-15T11:27:25.076Z,22.70
2023-05-15T11:30:25.099Z,22.60
2023-05-15T11:33:04.366Z,22.70
2023-05-15T11:35:39.540Z,22.80
2023-05-15T11:38:27.968Z,22.90
2023-05-15T11:41:03.215Z,22.80
2023-05-15T11:43:36.214Z,22.70
2023-05-15T11:46:12.604Z,22.80
2023-05-15T11:48:44.352Z,23.10
2023-05-15T11:51:19.226Z,23.40
2023-05-15T11:53:47.028Z,23.60
2023-05-15T11:56:19.403Z,23.80
2023-05-15T11:58:55.025Z,24.00
2023-05-15T12:01:21.927Z,24.20
2023-05-15T12:03:50.290Z,24.30
2023-05-15T12:06:18.419Z,24.50
2023-05-15T12:08:52.410Z,24.60
2023-05-15T12:11:23.325Z,24.70
2023-05-15T12:13:54.517Z,24.60
2023-05-15T12:16:39.907Z,24.60
2023-05-15T12:19:07.184Z,24.50
2023-05-15T12:21:43.254Z,24.40
2023-05-15T12:24:12.655Z,24.30
2023-05-15T12:26:40.101Z,24.10
2023-05-15T12:29:07.661Z,24.10
2023-05-15T12:31:35.788Z,24.20
2023-05-15T12:34:03.152Z,24.30
2023-05-15T12:36:31.322Z,24.40
2023-05-15T12:38:58.816Z,24.50
2023-05-15T12:41:29.346Z,24.50
2023-05-15T12:43:56.469Z,24.60
2023-05-15T12:46:31.797Z,24.60
2023-05-15T12:48:59.956Z,24.70
2023-05-15T12:51:27.491Z,24.70
2023-05-15T12:53:54.864Z,24.60
2023-05-15T12:56:24.921Z,24.60
2023-05-15T12:58:54.469Z,24.60
2023-05-15T13:01:23.504Z,24.60
2023-05-15T13:03:55.818Z,24.50
2023-05-15T13:06:37.941Z,24.40
2023-05-15T13:09:12.759Z,24.20
2023-05-15T13:11:47.015Z,24.10
2023-05-15T13:14:17.854Z,24.20
2023-05-15T13:16:48.000Z,24.20
2023-05-15T13:19:15.926Z,24.00
2023-05-15T13:21:43.910Z,23.90
2023-05-15T13:24:11.153Z,23.60
2023-05-15T13:26:38.254Z,23.30
2023-05-15T13:29:06.779Z,23.20
2023-05-15T13:31:34.121Z,23.00
2023-05-15T13:34:03.450Z,22.90
2023-05-15T13:36:32.916Z,23.00
2023-05-15T13:39:02.993Z,22.90
2023-05-15T13:41:29.997Z,22.80
2023-05-15T13:43:57.245Z,22.60
2023-05-15T13:46:24.156Z,22.50
2023-05-15T13:48:51.119Z,22.60
2023-05-15T13:51:18.058Z,22.70
2023-05-15T13:53:46.354Z,22.90
2023-05-15T13:56:16.323Z,23.00
2023-05-15T13:58:43.375Z,22.90
2023-05-15T14:01:10.322Z,22.80
2023-05-15T14:03:37.375Z,22.70
2023-05-15T14:06:04.630Z,22.70
2023-05-15T14:08:31.614Z,22.80
2023-05-15T14:10:58.515Z,22.90
2023-05-15T14:13:25.544Z,22.90
2023-05-15T14:15:52.427Z,22.80
2023-05-15T14:18:19.445Z,22.70
2023-05-15T14:20:46.376Z,22.60
2023-05-15T14:23:13.341Z,22.60
2023-05-15T14:25:41.450Z,22.60
2023-05-15T14:28:08.594Z,22.60
2023-05-15T14:30:35.483Z,22.60
2023-05-15T14:33:02.424Z,22.70
2023-05-15T14:35:31.203Z,22.90
2023-05-15T14:38:00.459Z,23.00
2023-05-15T14:40:29.459Z,23.00
2023-05-15T14:42:56.406Z,22.90
2023-05-15T14:45:23.354Z,22.80
2023-05-15T14:47:50.399Z,22.80
2023-05-15T14:50:20.047Z,22.90
2023-05-15T14:52:50.212Z,22.90
2023-05-15T14:55:22.099Z,23.00
2023-05-15T14:57:49.810Z,22.90
2023-05-15T15:00:17.348Z,22.80
2023-05-15T15:02:44.843Z,22.80
2023-05-15T15:05:12.149Z,22.70
2023-05-15T15:07:58.643Z,22.70
2023-05-15T15:10:25.794Z,22.80
2023-05-15T15:12:53.120Z,22.80
2023-05-15T15:15:21.137Z,22.80
2023-05-15T15:17:48.068Z,22.80
2023-05-15T15:20:16.819Z,22.80
2023-05-15T15:22:43.828Z,22.80
2023-05-15T15:25:11.097Z,22.90
2023-05-15T15:27:43.446Z,22.90
2023-05-15T15:30:11.049Z,22.80
2023-05-15T15:32:38.785Z,22.70
2023-05-15T15:35:06.751Z,22.70
2023-05-15T15:37:38.933Z,22.70
2023-05-15T15:40:07.399Z,22.70
2023-05-15T15:42:34.982Z,22.70
2023-05-15T15:45:02.370Z,22.70
2023-05-15T15:47:30.909Z,22.70
2023-05-15T15:50:00.860Z,22.60
2023-05-15T15:52:28.637Z,22.60
2023-05-15T15:54:55.640Z,22.60
2023-05-15T15:57:22.584Z,22.50
2023-05-15T15:59:49.778Z,22.40
2023-05-15T16:02:17.471Z,22.20
2023-05-15T16:04:44.682Z,22.10
2023-05-15T16:07:15.087Z,22.00
2023-05-15T16:09:44.139Z,22.00
2023-05-15T16:12:10.989Z,21.90
2023-05-15T16:14:37.928Z,21.80
2023-05-15T16:17:04.959Z,21.80
2023-05-15T16:19:31.919Z,21.70
2023-05-15T16:22:01.104Z,21.70
2023-05-15T16:24:29.220Z,21.70
2023-05-15T16:26:59.182Z,21.60
2023-05-15T16:29:29.149Z,21.60
2023-05-15T16:31:59.909Z,21.60
2023-05-15T16:34:27.385Z,21.60
2023-05-15T16:36:54.307Z,21.60
2023-05-15T16:39:22.100Z,21.60
2023-05-15T16:41:54.079Z,21.50
2023-05-15T16:44:24.264Z,21.50
2023-05-15T16:46:51.400Z,21.50
2023-05-15T16:49:18.331Z,21.40
2023-05-15T16:51:48.029Z,21.40
2023-05-15T16:54:16.129Z,21.40
2023-05-15T16:56:42.995Z,21.40
2023-05-15T16:59:10.062Z,21.30
2023-05-15T17:01:37.057Z,21.30
2023-05-15T17:04:04.227Z,21.20
2023-05-15T17:06:31.491Z,21.20
2023-05-15T17:08:58.426Z,21.20
2023-05-15T17:11:25.622Z,21.20
2023-05-15T17:13:55.033Z,21.20
2023-05-15T17:16:21.994Z,21.10
2023-05-15T17:18:51.546Z,21.10
2023-05-15T17:21:18.764Z,21.00
2023-05-15T17:23:45.742Z,21.00
2023-05-15T17:26:12.722Z,21.00
2023-05-15T17:28:42.248Z,20.90
2023-05-15T17:31:11.585Z,20.90
2023-05-15T17:33:39.726Z,20.80
2023-05-15T17:36:06.773Z,20.80
2023-05-15T17:38:38.543Z,20.80
2023-05-15T17:41:07.136Z,20.70
2023-05-15T17:43:34.056Z,20.70
2023-05-15T17:46:01.157Z,20.70
2023-05-15T17:48:28.088Z,20.60
2023-05-15T17:50:55.474Z,20.70
2023-05-15T17:53:24.827Z,20.60
2023-05-15T17:55:52.063Z,20.60
2023-05-15T17:58:19.063Z,20.60
2023-05-15T18:00:46.145Z,20.60
2023-05-15T18:03:13.173Z,20.50
2023-05-15T18:05:40.203Z,20.50
2023-05-15T18:08:07.158Z,20.50
2023-05-15T18:10:35.212Z,20.40
2023-05-15T18:13:02.072Z,20.40
2023-05-15T18:15:31.764Z,20.40
2023-05-15T18:17:59.500Z,20.30
2023-05-15T18:20:26.663Z,20.30
2023-05-15T18:22:53.570Z,20.20
2023-05-15T18:25:20.520Z,20.10
2023-05-15T18:27:47.471Z,20.10
2023-05-15T18:30:14.648Z,20.00
2023-05-15T18:32:42.677Z,19.90
2023-05-15T18:35:10.418Z,19.90
2023-05-15T18:37:37.399Z,19.70
2023-05-15T18:40:05.349Z,19.70
2023-05-15T18:42:32.718Z,19.60
2023-05-15T18:45:02.070Z,19.50
2023-05-15T18:47:29.130Z,19.50
2023-05-15T18:49:56.994Z,19.30
2023-05-15T18:52:23.892Z,19.30
2023-05-15T18:54:52.509Z,19.20
2023-05-15T18:57:22.685Z,19.10
2023-05-15T18:59:49.640Z,19.10
2023-05-15T19:02:16.525Z,18.90
2023-05-15T19:04:43.749Z,18.90
2023-05-15T19:07:10.686Z,18.80
2023-05-15T19:09:37.681Z,18.80
2023-05-15T19:12:07.604Z,18.70
2023-05-15T19:14:34.547Z,18.60
2023-05-15T19:17:01.500Z,18.60
2023-05-15T19:19:28.805Z,18.50
2023-05-15T19:21:55.678Z,18.50
2023-05-15T19:24:22.586Z,18.40
2023-05-15T19:26:51.625Z,18.40
2023-05-15T19:29:18.624Z,18.30
2023-05-15T19:31:46.015Z,18.20
2023-05-15T19:34:15.951Z,18.20
2023-05-15T19:36:46.540Z,18.10
2023-05-15T19:39:14.850Z,18.10
2023-05-15T19:41:47.281Z,18.00
2023-05-15T19:44:14.264Z,18.00
2023-05-15T19:46:41.334Z,17.90
2023-05-15T19:49:09.378Z,17.90
2023-05-15T19:51:36.389Z,17.80
2023-05-15T19:54:05.695Z,17.80
2023-05-15T19:56:32.729Z,17.80
2023-05-15T19:59:00.477Z,17.70
2023-05-15T20:01:27.434Z,17.70
2023-05-15T20:03:57.455Z,17.70
2023-05-15T20:06:24.684Z,17.70
2023-05-15T20:08:51.600Z,17.60
2023-05-15T20:11:18.775Z,17.60
2023-05-15T20:13:48.416Z,17.50
2023-05-15T20:16:16.549Z,17.50
2023-05-15T20:18:44.936Z,17.40
2023-05-15T20:21:11.902Z,17.40
2023-05-15T20:23:41.479Z,17.40
2023-05-15T20:26:10.915Z,17.40
2023-05-15T20:28:37.827Z,17.40
2023-05-15T20:31:06.101Z,17.40
2023-05-15T20:33:33.203Z,17.40
2023-05-15T20:36:03.412Z,17.30
2023-05-15T20:38:30.416Z,17.30
2023-05-15T20:40:57.581Z,17.30
2023-05-15T20:43:24.639Z,17.30
2023-05-15T20:45:51.921Z,17.20
2023-05-15T20:48:20.987Z,17.20
2023-05-15T20:50:47.946Z,17.20
2023-05-15T20:53:15.021Z,17.20
2023-05-15T20:55:44.478Z,17.20
2023-05-15T20:58:11.686Z,17.10
2023-05-15T21:00:40.854Z,17.10
2023-05-15T21:03:08.156Z,17.00
2023-05-15T21:05:35.079Z,17.00
2023-05-15T21:08:02.895Z,17.00
2023-05-15T21:10:29.933Z,17.00
2023-05-15T21:12:59.221Z,16.90
2023-05-15T21:15:26.218Z,16.90
2023-05-15T21:17:53.301Z,16.80
2023-05-15T21:20:20.338Z,16.90
2023-05-15T21:22:47.303Z,16.90
2023-05-15T21:25:15.831Z,16.80
2023-05-15T21:27:42.726Z,16.80
2023-05-15T21:30:10.047Z,16.80
2023-05-15T21:32:37.141Z,16.80
2023-05-15T21:35:07.218Z,16.80
2023-05-15T21:37:35.306Z,16.70
2023-05-15T21:40:02.534Z,16.60
2023-05-15T21:42:31.801Z,16.60
2023-05-15T21:44:59.319Z,16.60
2023-05-15T21:47:26.508Z,16.50
2023-05-15T21:49:53.389Z,16.50
2023-05-15T21:52:20.327Z,16.50
2023-05-15T21:54:49.758Z,16.50
2023-05-15T21:57:17.210Z,16.50
2023-05-15T21:59:44.055Z,16.50
2023-05-15T22:02:11.153Z,16.40
2023-05-15T22:04:38.131Z,16.40
2023-05-15T22:07:05.195Z,16.40
2023-05-15T22:09:32.346Z,16.40
2023-05-15T22:12:00.468Z,16.40
2023-05-15T22:14:28.571Z,16.30
2023-05-15T22:16:56.030Z,16.30
2023-05-15T22:19:33.166Z,16.20
2023-05-15T22:22:04.492Z,16.20
2023-05-15T22:24:33.702Z,16.20
2023-05-15T22:27:00.719Z,16.20
2023-05-15T22:29:30.587Z,16.10
2023-05-15T22:32:02.227Z,16.10
2023-05-15T22:34:32.024Z,16.10
2023-05-15T22:36:58.931Z,16.00
2023-05-15T22:39:25.932Z,16.00
2023-05-15T22:41:52.927Z,16.00
2023-05-15T22:44:19.993Z,16.00
2023-05-15T22:46:47.033Z,16.00
2023-05-15T22:49:19.187Z,16.00
2023-05-15T22:51:46.916Z,16.00
2023-05-15T22:54:13.888Z,16.00
2023-05-15T22:56:40.830Z,15.90
2023-05-15T22:59:09.515Z,15.90
2023-05-15T23:01:36.526Z,15.90
2023-05-15T23:04:04.188Z,15.90
2023-05-15T23:06:32.360Z,15.80
2023-05-15T23:08:59.629Z,15.90
2023-05-15T23:11:26.750Z,15.90
2023-05-15T23:13:54.048Z,15.90
2023-05-15T23:16:24.713Z,15.90
2023-05-15T23:18:55.110Z,15.90
2023-05-15T23:21:22.217Z,15.90
2023-05-15T23:23:49.275Z,15.90
2023-05-15T23:26:16.309Z,16.00
2023-05-15T23:28:43.254Z,16.00
2023-05-15T23:31:12.671Z,16.00
2023-05-15T23:33:39.905Z,16.10
2023-05-15T23:36:07.292Z,16.10
2023-05-15T23:38:36.585Z,16.10
2023-05-15T23:41:03.780Z,16.20
2023-05-15T23:43:30.740Z,16.20
2023-05-15T23:45:57.796Z,16.20
2023-05-15T23:48:25.501Z,16.30
2023-05-15T23:50:53.197Z,16.30
2023-05-15T23:53:20.317Z,16.30
2023-05-15T23:55:47.463Z,16.40
2023-05-15T23:58:14.330Z,16.40
